Upper Nyack, New York
Current Conditions -  °F | °C
As of 1:56 AM on Wednesday 22 Oct 2014 (Local Time) from KHPN Reporting Station
Broken Clouds Broken Clouds  
Wind Chill: 56°   Ceiling: 5000
Heat Index: 56°   Visibility: 10mi
Dew Point: 52°   Wind: 6mph
Humidity: 87%   Direction: 40°NE
Pressure: 29.9"   Gusts: NA
Location:  41.0938°N, 73.9254°W
Report Text: KHPN 220556Z 04005KT 10SM SCT030 BKN050 13/11 A2990 RMK AO2 SLP123 T01330111 10144 20122 57005
Loading
Personal Weather Stations






























Interactive Weather Map
Tropical Storm Tracking
New forecast layout! Learn more

10-Day Weather Forecast

Advertisements
Track Severe Weather on mobile